Time,TemperatureF,DewpointF,PressureIn,WindDirection,WindDirectionDegrees,WindSpeedMPH,WindSpeedGustMPH,Humidity,HourlyPrecipIn,Conditions,Clouds,dailyrainin,SoftwareType,DateUTC
2013-11-23 00:00:00,43.1,33.3,30.03,West,277,0.0,0.0,68,0.00,,,0.24,Wunderground v.1.15,2013-11-23 08:00:00,
2013-11-23 00:05:00,43.2,34.1,30.02,West,259,0.0,0.0,70,0.00,,,0.00,Wunderground v.1.15,2013-11-23 08:05:00,
2013-11-23 00:15:00,43.1,33.6,30.02,WNW,297,0.0,0.0,69,0.00,,,0.00,Wunderground v.1.15,2013-11-23 08:15:00,
2013-11-23 00:20:00,43.1,34.0,30.02,WNW,297,0.0,0.0,70,0.00,,,0.00,Wunderground v.1.15,2013-11-23 08:20:00,
2013-11-23 00:25:00,43.1,34.0,30.02,WNW,297,0.0,0.0,70,0.00,,,0.00,Wunderground v.1.15,2013-11-23 08:25:00,
2013-11-23 00:30:00,43.2,33.7,30.02,WNW,297,0.0,0.0,69,0.00,,,0.00,Wunderground v.1.15,2013-11-23 08:30:00,
2013-11-23 00:35:00,43.3,33.4,30.02,WNW,298,0.0,0.0,68,0.00,,,0.00,Wunderground v.1.15,2013-11-23 08:35:00,
2013-11-23 00:45:00,43.6,34.1,30.02,WNW,297,0.0,0.0,69,0.00,,,0.00,Wunderground v.1.15,2013-11-23 08:45:00,
2013-11-23 00:50:00,43.8,34.6,30.02,WNW,297,0.0,0.0,70,0.00,,,0.00,Wunderground v.1.15,2013-11-23 08:50:00,
2013-11-23 00:55:00,43.6,34.8,30.02,WNW,297,0.0,0.0,71,0.00,,,0.00,Wunderground v.1.15,2013-11-23 08:55:00,
2013-11-23 01:00:00,43.6,35.5,30.02,WNW,297,0.0,0.0,73,0.00,,,0.00,Wunderground v.1.15,2013-11-23 09:00:00,
2013-11-23 01:05:00,43.5,35.8,30.01,WNW,297,0.0,0.0,74,0.00,,,0.00,Wunderground v.1.15,2013-11-23 09:05:00,
2013-11-23 01:15:00,43.3,35.6,30.01,West,281,0.0,0.0,74,0.00,,,0.00,Wunderground v.1.15,2013-11-23 09:15:00,
2013-11-23 01:20:00,43.2,35.5,30.01,West,277,0.0,0.0,74,0.00,,,0.00,Wunderground v.1.15,2013-11-23 09:20:00,
2013-11-23 01:25:00,43.2,35.5,30.01,West,277,0.0,0.0,74,0.00,,,0.00,Wunderground v.1.15,2013-11-23 09:25:00,
2013-11-23 01:30:00,43.2,35.5,30.01,West,277,0.0,0.0,74,0.00,,,0.00,Wunderground v.1.15,2013-11-23 09:30:00,
2013-11-23 01:35:00,43.3,35.6,30.01,West,275,0.0,0.0,74,0.00,,,0.00,Wunderground v.1.15,2013-11-23 09:35:00,
2013-11-23 01:40:00,43.3,34.9,30.01,West,275,0.0,0.0,72,0.00,,,0.00,Wunderground v.1.15,2013-11-23 09:40:00,
2013-11-23 01:45:00,43.5,35.4,30.01,West,275,0.0,0.0,73,0.00,,,0.00,Wunderground v.1.15,2013-11-23 09:45:00,
2013-11-23 01:50:00,43.5,35.1,30.01,West,275,0.0,0.0,72,0.00,,,0.00,Wunderground v.1.15,2013-11-23 09:50:00,
2013-11-23 01:55:00,43.5,35.1,30.01,West,275,0.0,0.0,72,0.00,,,0.00,Wunderground v.1.15,2013-11-23 09:55:00,
2013-11-23 02:00:00,43.3,35.2,30.01,West,275,0.0,0.0,73,0.00,,,0.00,Wunderground v.1.15,2013-11-23 10:00:00,
2013-11-23 02:05:00,43.3,35.2,30.01,West,275,0.0,0.0,73,0.00,,,0.00,Wunderground v.1.15,2013-11-23 10:05:00,
2013-11-23 02:10:00,43.3,35.2,30.01,West,275,0.0,0.0,73,0.00,,,0.00,Wunderground v.1.15,2013-11-23 10:10:00,
2013-11-23 02:15:00,43.3,35.6,30.01,West,275,0.0,0.0,74,0.00,,,0.00,Wunderground v.1.15,2013-11-23 10:15:00,
2013-11-23 02:20:00,43.3,35.9,30.01,West,275,0.0,0.0,75,0.00,,,0.00,Wunderground v.1.15,2013-11-23 10:20:00,
2013-11-23 02:25:00,43.1,36.4,30.01,West,275,0.0,0.0,77,0.00,,,0.00,Wunderground v.1.15,2013-11-23 10:25:00,
2013-11-23 02:30:00,42.9,35.5,30.01,West,275,0.0,0.0,75,0.00,,,0.00,Wunderground v.1.15,2013-11-23 10:30:00,
2013-11-23 02:35:00,42.8,35.1,30.01,West,275,0.0,0.0,74,0.00,,,0.00,Wunderground v.1.15,2013-11-23 10:35:00,
2013-11-23 02:40:00,42.8,35.1,30.01,West,275,0.0,0.0,74,0.00,,,0.00,Wunderground v.1.15,2013-11-23 10:40:00,
2013-11-23 02:45:00,42.9,35.5,30.01,West,275,0.0,0.0,75,0.00,,,0.00,Wunderground v.1.15,2013-11-23 10:45:00,
2013-11-23 02:50:00,42.9,35.5,30.02,West,275,0.0,0.0,75,0.00,,,0.00,Wunderground v.1.15,2013-11-23 10:50:00,
2013-11-23 02:55:00,42.9,35.5,30.02,West,275,0.0,0.0,75,0.00,,,0.00,Wunderground v.1.15,2013-11-23 10:55:00,
2013-11-23 03:00:00,43.1,35.7,30.02,West,275,0.0,0.0,75,0.00,,,0.00,Wunderground v.1.15,2013-11-23 11:00:00,
2013-11-23 03:05:00,43.2,35.5,30.01,West,275,0.0,0.0,74,0.00,,,0.00,Wunderground v.1.15,2013-11-23 11:05:00,
2013-11-23 03:10:00,43.2,35.1,30.01,West,275,0.0,0.0,73,0.00,,,0.00,Wunderground v.1.15,2013-11-23 11:10:00,
2013-11-23 03:15:00,43.3,35.6,30.01,West,275,0.0,0.0,74,0.00,,,0.00,Wunderground v.1.15,2013-11-23 11:15:00,
2013-11-23 03:20:00,43.5,35.8,30.02,West,275,0.0,0.0,74,0.00,,,0.00,Wunderground v.1.15,2013-11-23 11:20:00,
2013-11-23 03:25:00,43.5,36.1,30.02,West,275,0.0,0.0,75,0.00,,,0.00,Wunderground v.1.15,2013-11-23 11:25:00,
2013-11-23 03:35:00,43.5,36.8,30.03,West,275,0.0,0.0,77,0.00,,,0.00,Wunderground v.1.15,2013-11-23 11:35:00,
2013-11-23 03:40:00,43.3,35.9,30.03,West,275,0.0,0.0,75,0.00,,,0.00,Wunderground v.1.15,2013-11-23 11:40:00,
2013-11-23 03:45:00,43.3,35.6,30.03,West,279,0.0,0.0,74,0.00,,,0.00,Wunderground v.1.15,2013-11-23 11:45:00,
2013-11-23 03:50:00,43.5,35.4,30.03,West,279,0.0,0.0,73,0.00,,,0.00,Wunderground v.1.15,2013-11-23 11:50:00,
2013-11-23 03:55:00,44.1,33.5,30.03,NNE,26,0.0,0.0,66,0.00,,,0.00,Wunderground v.1.15,2013-11-23 11:55:00,
2013-11-23 04:05:00,45.2,33.7,30.03,North,5,0.0,0.0,64,0.00,,,0.00,Wunderground v.1.15,2013-11-23 12:05:00,
2013-11-23 04:10:00,45.2,33.7,30.03,NNW,335,1.0,1.0,64,0.00,,,0.01,Wunderground v.1.15,2013-11-23 12:10:00,
2013-11-23 04:15:00,44.8,35.2,30.03,WNW,296,1.0,1.0,69,0.00,,,0.01,Wunderground v.1.15,2013-11-23 12:15:00,
2013-11-23 04:20:00,44.2,34.3,30.05,NNW,338,0.0,0.0,68,0.00,,,0.01,Wunderground v.1.15,2013-11-23 12:20:00,
2013-11-23 04:25:00,43.8,35.0,30.05,NNW,339,0.0,0.0,71,0.00,,,0.01,Wunderground v.1.15,2013-11-23 12:25:00,
2013-11-23 04:30:00,43.6,35.2,30.05,NNW,340,0.0,0.0,72,0.00,,,0.01,Wunderground v.1.15,2013-11-23 12:30:00,
2013-11-23 04:35:00,43.3,35.2,30.05,North,350,0.0,0.0,73,0.00,,,0.01,Wunderground v.1.15,2013-11-23 12:35:00,
2013-11-23 04:40:00,43.3,35.2,30.05,North,355,0.0,0.0,73,0.00,,,0.01,Wunderground v.1.15,2013-11-23 12:40:00,
2013-11-23 04:45:00,43.3,35.9,30.05,North,355,0.0,0.0,75,0.00,,,0.01,Wunderground v.1.15,2013-11-23 12:45:00,
2013-11-23 04:50:00,43.2,36.1,30.04,NW,308,0.0,0.0,76,0.00,,,0.01,Wunderground v.1.15,2013-11-23 12:50:00,
2013-11-23 04:55:00,43.1,36.0,30.04,NW,313,0.0,0.0,76,0.00,,,0.01,Wunderground v.1.15,2013-11-23 12:55:00,
2013-11-23 05:00:00,43.1,35.7,30.04,NW,313,0.0,0.0,75,0.00,,,0.01,Wunderground v.1.15,2013-11-23 13:00:00,
2013-11-23 05:05:00,43.1,36.0,30.05,NW,316,0.0,0.0,76,0.00,,,0.01,Wunderground v.1.15,2013-11-23 13:05:00,
2013-11-23 05:10:00,43.2,36.5,30.05,NW,316,0.0,0.0,77,0.00,,,0.01,Wunderground v.1.15,2013-11-23 13:10:00,
2013-11-23 05:15:00,43.1,37.0,30.05,NW,316,0.0,0.0,79,0.00,,,0.01,Wunderground v.1.15,2013-11-23 13:15:00,
2013-11-23 05:25:00,42.8,37.4,30.04,NW,316,0.0,0.0,81,0.00,,,0.01,Wunderground v.1.15,2013-11-23 13:25:00,
2013-11-23 05:30:00,42.5,37.4,30.04,NW,316,0.0,0.0,82,0.00,,,0.01,Wunderground v.1.15,2013-11-23 13:30:00,
2013-11-23 05:35:00,42.5,37.7,30.04,NW,316,0.0,0.0,83,0.00,,,0.02,Wunderground v.1.15,2013-11-23 13:35:00,
2013-11-23 05:40:00,42.3,37.5,30.04,NW,316,0.0,0.0,83,0.00,,,0.02,Wunderground v.1.15,2013-11-23 13:40:00,
2013-11-23 05:45:00,42.2,37.7,30.04,NW,316,0.0,0.0,84,0.00,,,0.02,Wunderground v.1.15,2013-11-23 13:45:00,
2013-11-23 05:50:00,42.2,38.0,30.04,NW,316,0.0,0.0,85,0.00,,,0.02,Wunderground v.1.15,2013-11-23 13:50:00,
2013-11-23 05:55:00,42.1,37.9,30.04,West,278,0.0,0.0,85,0.00,,,0.02,Wunderground v.1.15,2013-11-23 13:55:00,
2013-11-23 06:00:00,41.9,37.7,30.04,West,279,0.0,0.0,85,0.00,,,0.02,Wunderground v.1.15,2013-11-23 14:00:00,
2013-11-23 06:05:00,41.9,37.4,30.04,West,278,0.0,0.0,84,0.00,,,0.02,Wunderground v.1.15,2013-11-23 14:05:00,
2013-11-23 06:10:00,41.9,37.4,30.04,West,278,0.0,0.0,84,0.00,,,0.02,Wunderground v.1.15,2013-11-23 14:10:00,
2013-11-23 06:15:00,42.1,37.6,30.04,West,278,0.0,0.0,84,0.00,,,0.02,Wunderground v.1.15,2013-11-23 14:15:00,
2013-11-23 06:20:00,42.1,37.3,30.03,West,278,0.0,0.0,83,0.00,,,0.02,Wunderground v.1.15,2013-11-23 14:20:00,
2013-11-23 06:25:00,42.1,37.3,30.03,West,279,0.0,0.0,83,0.00,,,0.03,Wunderground v.1.15,2013-11-23 14:25:00,
2013-11-23 06:30:00,42.2,35.8,30.03,North,360,0.0,0.0,78,0.00,,,0.03,Wunderground v.1.15,2013-11-23 14:30:00,
2013-11-23 06:35:00,42.5,35.8,30.04,WNW,300,1.0,1.0,77,0.00,,,0.03,Wunderground v.1.15,2013-11-23 14:35:00,
2013-11-23 06:40:00,42.8,36.7,30.04,WNW,290,0.0,0.0,79,0.00,,,0.03,Wunderground v.1.15,2013-11-23 14:40:00,
2013-11-23 06:45:00,42.6,36.5,30.04,WNW,290,0.0,0.0,79,0.00,,,0.03,Wunderground v.1.15,2013-11-23 14:45:00,
2013-11-23 06:50:00,42.6,36.5,30.05,WNW,290,0.0,0.0,79,0.00,,,0.03,Wunderground v.1.15,2013-11-23 14:50:00,
2013-11-23 06:55:00,42.6,36.9,30.05,WNW,290,0.0,0.0,80,0.00,,,0.03,Wunderground v.1.15,2013-11-23 14:55:00,
2013-11-23 07:00:00,42.6,36.9,30.05,WNW,290,0.0,0.0,80,0.00,,,0.03,Wunderground v.1.15,2013-11-23 15:00:00,
2013-11-23 07:05:00,42.6,37.2,30.05,WNW,290,0.0,0.0,81,0.00,,,0.03,Wunderground v.1.15,2013-11-23 15:05:00,
2013-11-23 07:15:00,42.6,37.2,30.05,WNW,290,0.0,0.0,81,0.00,,,0.03,Wunderground v.1.15,2013-11-23 15:15:00,
2013-11-23 07:20:00,42.6,37.2,30.05,WNW,290,0.0,0.0,81,0.00,,,0.03,Wunderground v.1.15,2013-11-23 15:20:00,
2013-11-23 07:25:00,42.6,37.2,30.05,WNW,290,0.0,0.0,81,0.00,,,0.03,Wunderground v.1.15,2013-11-23 15:25:00,
2013-11-23 07:30:00,42.5,36.4,30.05,WNW,290,0.0,0.0,79,0.00,,,0.03,Wunderground v.1.15,2013-11-23 15:30:00,
2013-11-23 07:35:00,42.6,36.5,30.05,WNW,290,0.0,0.0,79,0.00,,,0.03,Wunderground v.1.15,2013-11-23 15:35:00,
2013-11-23 07:40:00,42.8,36.7,30.05,WNW,290,0.0,0.0,79,0.00,,,0.04,Wunderground v.1.15,2013-11-23 15:40:00,
2013-11-23 07:45:00,43.1,36.7,30.05,WNW,290,0.0,0.0,78,0.00,,,0.04,Wunderground v.1.15,2013-11-23 15:45:00,
2013-11-23 07:50:00,43.5,36.8,30.05,West,265,0.0,0.0,77,0.00,,,0.04,Wunderground v.1.15,2013-11-23 15:50:00,
2013-11-23 07:55:00,43.9,36.8,30.05,West,263,0.0,0.0,76,0.00,,,0.04,Wunderground v.1.15,2013-11-23 15:55:00,
2013-11-23 08:00:00,44.2,37.1,30.05,West,263,0.0,0.0,76,0.00,,,0.04,Wunderground v.1.15,2013-11-23 16:00:00,
2013-11-23 08:05:00,44.3,35.8,30.05,West,263,0.0,0.0,72,0.00,,,0.04,Wunderground v.1.15,2013-11-23 16:05:00,
2013-11-23 08:10:00,44.6,36.1,30.05,West,263,0.0,0.0,72,0.00,,,0.04,Wunderground v.1.15,2013-11-23 16:10:00,
2013-11-23 08:15:00,44.9,36.1,30.05,West,263,0.0,0.0,71,0.00,,,0.04,Wunderground v.1.15,2013-11-23 16:15:00,
2013-11-23 08:20:00,45.1,35.9,30.05,West,263,0.0,0.0,70,0.00,,,0.04,Wunderground v.1.15,2013-11-23 16:20:00,
2013-11-23 08:25:00,45.2,36.0,30.05,West,263,0.0,0.0,70,0.00,,,0.04,Wunderground v.1.15,2013-11-23 16:25:00,
2013-11-23 08:30:00,45.4,35.8,30.05,West,263,0.0,0.0,69,0.00,,,0.04,Wunderground v.1.15,2013-11-23 16:30:00,
2013-11-23 08:35:00,45.4,35.8,30.05,West,263,0.0,0.0,69,0.00,,,0.05,Wunderground v.1.15,2013-11-23 16:35:00,
2013-11-23 08:40:00,45.5,36.3,30.05,West,263,0.0,0.0,70,0.00,,,0.05,Wunderground v.1.15,2013-11-23 16:40:00,
2013-11-23 09:10:00,46.5,35.0,30.05,West,263,0.0,0.0,64,0.00,,,0.05,Wunderground v.1.15,2013-11-23 17:10:00,
2013-11-23 09:15:00,46.7,35.2,30.05,West,263,0.0,0.0,64,0.00,,,0.05,Wunderground v.1.15,2013-11-23 17:15:00,
2013-11-23 09:20:00,46.8,35.6,30.05,West,263,0.0,0.0,65,0.00,,,0.05,Wunderground v.1.15,2013-11-23 17:20:00,
2013-11-23 09:25:00,47.0,35.4,30.05,West,263,0.0,0.0,64,0.00,,,0.05,Wunderground v.1.15,2013-11-23 17:25:00,
2013-11-23 09:35:00,47.1,35.5,30.06,West,263,0.0,0.0,64,0.00,,,0.05,Wunderground v.1.15,2013-11-23 17:35:00,
2013-11-23 09:40:00,47.4,36.6,30.06,West,263,0.0,0.0,66,0.00,,,0.05,Wunderground v.1.15,2013-11-23 17:40:00,
2013-11-23 09:45:00,47.3,36.1,30.06,West,263,0.0,0.0,65,0.00,,,0.05,Wunderground v.1.15,2013-11-23 17:45:00,
2013-11-23 09:50:00,47.4,35.4,30.06,ESE,102,0.0,0.0,63,0.00,,,0.05,Wunderground v.1.15,2013-11-23 17:50:00,
2013-11-23 10:00:00,47.4,35.8,30.06,East,80,0.0,0.0,64,0.00,,,0.05,Wunderground v.1.15,2013-11-23 18:00:00,
2013-11-23 10:05:00,47.4,35.0,30.07,East,81,0.0,0.0,62,0.00,,,0.05,Wunderground v.1.15,2013-11-23 18:05:00,
2013-11-23 10:10:00,47.4,34.6,30.07,ENE,69,0.0,0.0,61,0.00,,,0.05,Wunderground v.1.15,2013-11-23 18:10:00,
2013-11-23 10:15:00,47.6,35.2,30.07,East,96,0.0,0.0,62,0.00,,,0.05,Wunderground v.1.15,2013-11-23 18:15:00,
2013-11-23 10:20:00,47.6,35.2,30.07,ENE,72,0.0,0.0,62,0.00,,,0.05,Wunderground v.1.15,2013-11-23 18:20:00,
2013-11-23 10:30:00,47.6,36.0,30.07,ESE,107,0.0,0.0,64,0.00,,,0.05,Wunderground v.1.15,2013-11-23 18:30:00,
2013-11-23 10:35:00,47.6,36.0,30.07,East,90,1.0,1.0,64,0.00,,,0.05,Wunderground v.1.15,2013-11-23 18:35:00,
2013-11-23 10:45:00,47.4,35.8,30.07,East,79,1.0,1.0,64,0.00,,,0.05,Wunderground v.1.15,2013-11-23 18:45:00,
2013-11-23 10:50:00,47.6,36.4,30.08,East,91,0.0,0.0,65,0.00,,,0.05,Wunderground v.1.15,2013-11-23 18:50:00,
2013-11-23 10:55:00,47.6,36.4,30.08,ENE,76,0.0,0.0,65,0.00,,,0.05,Wunderground v.1.15,2013-11-23 18:55:00,
2013-11-23 11:00:00,47.6,36.8,30.08,ESE,102,0.0,0.0,66,0.00,,,0.05,Wunderground v.1.15,2013-11-23 19:00:00,
2013-11-23 11:05:00,47.6,37.2,30.08,East,92,1.0,1.0,67,0.00,,,0.05,Wunderground v.1.15,2013-11-23 19:05:00,
2013-11-23 11:10:00,47.6,37.2,30.08,ENE,63,1.0,3.0,67,0.00,,,0.05,Wunderground v.1.15,2013-11-23 19:10:00,
2013-11-23 11:15:00,47.6,36.8,30.08,ESE,106,1.0,3.0,66,0.00,,,0.05,Wunderground v.1.15,2013-11-23 19:15:00,
2013-11-23 11:20:00,47.6,36.8,30.07,ENE,65,1.0,1.0,66,0.00,,,0.05,Wunderground v.1.15,2013-11-23 19:20:00,
2013-11-23 11:25:00,47.6,37.2,30.07,East,84,0.0,1.0,67,0.00,,,0.05,Wunderground v.1.15,2013-11-23 19:25:00,
2013-11-23 11:30:00,47.6,37.6,30.07,ESE,121,0.0,0.0,68,0.00,,,0.05,Wunderground v.1.15,2013-11-23 19:30:00,
2013-11-23 11:35:00,47.6,37.6,30.07,East,94,0.0,0.0,68,0.00,,,0.05,Wunderground v.1.15,2013-11-23 19:35:00,
2013-11-23 11:40:00,47.7,37.3,30.07,East,96,0.0,0.0,67,0.00,,,0.05,Wunderground v.1.15,2013-11-23 19:40:00,
2013-11-23 11:50:00,48.5,36.9,30.06,East,100,0.0,0.0,64,0.00,,,0.05,Wunderground v.1.15,2013-11-23 19:50:00,
2013-11-23 11:55:00,48.6,37.0,30.06,East,92,0.0,0.0,64,0.00,,,0.05,Wunderground v.1.15,2013-11-23 19:55:00,
2013-11-23 12:00:00,49.1,39.0,30.06,East,90,0.0,0.0,68,0.00,,,0.05,Wunderground v.1.15,2013-11-23 20:00:00,
2013-11-23 12:05:00,48.8,37.2,30.06,ENE,69,0.0,0.0,64,0.00,,,0.05,Wunderground v.1.15,2013-11-23 20:05:00,
2013-11-23 12:10:00,48.6,36.6,30.06,ENE,69,0.0,0.0,63,0.00,,,0.05,Wunderground v.1.15,2013-11-23 20:10:00,
2013-11-23 12:15:00,48.6,37.0,30.06,ENE,71,0.0,0.0,64,0.00,,,0.05,Wunderground v.1.15,2013-11-23 20:15:00,
2013-11-23 12:20:00,48.8,37.2,30.05,ENE,71,0.0,0.0,64,0.00,,,0.05,Wunderground v.1.15,2013-11-23 20:20:00,
2013-11-23 12:25:00,48.8,36.4,30.05,ENE,71,0.0,0.0,62,0.00,,,0.05,Wunderground v.1.15,2013-11-23 20:25:00,
2013-11-23 12:30:00,48.9,36.0,30.05,ENE,70,0.0,0.0,61,0.00,,,0.05,Wunderground v.1.15,2013-11-23 20:30:00,
2013-11-23 12:35:00,48.9,36.9,30.05,ENE,70,0.0,0.0,63,0.00,,,0.05,Wunderground v.1.15,2013-11-23 20:35:00,
2013-11-23 12:40:00,48.9,36.4,30.05,ENE,70,0.0,0.0,62,0.00,,,0.05,Wunderground v.1.15,2013-11-23 20:40:00,
2013-11-23 12:45:00,48.8,35.9,30.05,ENE,70,0.0,0.0,61,0.00,,,0.05,Wunderground v.1.15,2013-11-23 20:45:00,
2013-11-23 12:50:00,48.9,36.4,30.05,ENE,70,0.0,0.0,62,0.00,,,0.05,Wunderground v.1.15,2013-11-23 20:50:00,
2013-11-23 12:55:00,49.1,36.2,30.05,ENE,70,0.0,0.0,61,0.00,,,0.05,Wunderground v.1.15,2013-11-23 20:55:00,
2013-11-23 13:00:00,49.4,37.7,30.05,ENE,70,0.0,0.0,64,0.00,,,0.05,Wunderground v.1.15,2013-11-23 21:00:00,
2013-11-23 13:05:00,49.8,37.7,30.03,ENE,70,0.0,0.0,63,0.00,,,0.05,Wunderground v.1.15,2013-11-23 21:05:00,
2013-11-23 13:10:00,49.6,35.4,30.03,ESE,102,0.0,0.0,58,0.00,,,0.05,Wunderground v.1.15,2013-11-23 21:10:00,
2013-11-23 13:15:00,49.6,36.3,30.03,ESE,102,0.0,0.0,60,0.00,,,0.05,Wunderground v.1.15,2013-11-23 21:15:00,
2013-11-23 13:20:00,49.8,36.0,30.03,ESE,102,0.0,0.0,59,0.00,,,0.05,Wunderground v.1.15,2013-11-23 21:20:00,
2013-11-23 13:25:00,49.8,36.0,30.03,ESE,102,0.0,0.0,59,0.00,,,0.05,Wunderground v.1.15,2013-11-23 21:25:00,
2013-11-23 13:30:00,49.8,35.2,30.03,East,101,0.0,0.0,57,0.00,,,0.05,Wunderground v.1.15,2013-11-23 21:30:00,
2013-11-23 13:40:00,49.8,36.5,30.03,East,101,0.0,0.0,60,0.00,,,0.05,Wunderground v.1.15,2013-11-23 21:40:00,
2013-11-23 13:45:00,49.6,35.8,30.03,ESE,103,0.0,0.0,59,0.00,,,0.05,Wunderground v.1.15,2013-11-23 21:45:00,
2013-11-23 13:50:00,49.6,35.8,30.02,East,101,0.0,0.0,59,0.00,,,0.05,Wunderground v.1.15,2013-11-23 21:50:00,
2013-11-23 13:55:00,49.6,35.0,30.02,East,101,0.0,0.0,57,0.00,,,0.05,Wunderground v.1.15,2013-11-23 21:55:00,
2013-11-23 14:05:00,49.6,35.8,30.02,ENE,73,0.0,0.0,59,0.00,,,0.05,Wunderground v.1.15,2013-11-23 22:05:00,
2013-11-23 14:10:00,49.5,35.8,30.02,ENE,74,0.0,0.0,59,0.00,,,0.05,Wunderground v.1.15,2013-11-23 22:10:00,
2013-11-23 14:15:00,49.6,35.8,30.02,ENE,74,0.0,0.0,59,0.00,,,0.05,Wunderground v.1.15,2013-11-23 22:15:00,
2013-11-23 14:25:00,49.6,36.3,30.02,East,90,0.0,0.0,60,0.00,,,0.05,Wunderground v.1.15,2013-11-23 22:25:00,
2013-11-23 14:30:00,49.8,36.9,30.02,East,90,0.0,0.0,61,0.00,,,0.05,Wunderground v.1.15,2013-11-23 22:30:00,
2013-11-23 14:35:00,49.8,36.5,30.02,East,90,0.0,0.0,60,0.00,,,0.05,Wunderground v.1.15,2013-11-23 22:35:00,
2013-11-23 14:40:00,49.9,37.4,30.02,East,88,0.0,0.0,62,0.00,,,0.05,Wunderground v.1.15,2013-11-23 22:40:00,
2013-11-23 14:45:00,49.9,37.4,30.02,East,90,0.0,0.0,62,0.00,,,0.05,Wunderground v.1.15,2013-11-23 22:45:00,
2013-11-23 14:50:00,49.6,37.1,30.02,East,80,0.0,2.0,62,0.00,,,0.05,Wunderground v.1.15,2013-11-23 22:50:00,
2013-11-23 14:55:00,49.4,36.9,30.02,ENE,76,1.0,2.0,62,0.00,,,0.05,Wunderground v.1.15,2013-11-23 22:55:00,
2013-11-23 15:00:00,49.2,36.7,30.02,East,87,1.0,1.0,62,0.00,,,0.05,Wunderground v.1.15,2013-11-23 23:00:00,
2013-11-23 15:05:00,49.2,37.1,30.03,East,101,0.0,1.0,63,0.00,,,0.05,Wunderground v.1.15,2013-11-23 23:05:00,
2013-11-23 15:10:00,49.1,36.6,30.03,East,86,0.0,1.0,62,0.00,,,0.05,Wunderground v.1.15,2013-11-23 23:10:00,
2013-11-23 15:15:00,48.9,36.4,30.03,East,82,1.0,2.0,62,0.00,,,0.05,Wunderground v.1.15,2013-11-23 23:15:00,
2013-11-23 15:20:00,48.8,35.9,30.03,ESE,109,1.0,3.0,61,0.00,,,0.05,Wunderground v.1.15,2013-11-23 23:20:00,
2013-11-23 15:25:00,48.6,35.7,30.03,ENE,70,1.0,3.0,61,0.00,,,0.05,Wunderground v.1.15,2013-11-23 23:25:00,
2013-11-23 15:30:00,48.6,35.7,30.03,ENE,77,1.0,1.0,61,0.00,,,0.05,Wunderground v.1.15,2013-11-23 23:30:00,
2013-11-23 15:35:00,48.6,35.7,30.03,East,88,0.0,1.0,61,0.00,,,0.05,Wunderground v.1.15,2013-11-23 23:35:00,
2013-11-23 15:40:00,48.6,35.7,30.03,East,90,1.0,1.0,61,0.00,,,0.05,Wunderground v.1.15,2013-11-23 23:40:00,
2013-11-23 15:45:00,48.5,35.7,30.03,East,98,1.0,4.0,61,0.00,,,0.05,Wunderground v.1.15,2013-11-23 23:45:00,
2013-11-23 15:50:00,48.5,35.7,30.03,East,83,1.0,1.0,61,0.00,,,0.05,Wunderground v.1.15,2013-11-23 23:50:00,
2013-11-23 15:55:00,48.5,36.1,30.03,East,96,1.0,1.0,62,0.00,,,0.05,Wunderground v.1.15,2013-11-23 23:55:00,
2013-11-23 16:00:00,48.3,35.5,30.03,East,98,0.0,0.0,61,0.00,,,0.05,Wunderground v.1.15,2013-11-24 00:00:00,
2013-11-23 16:05:00,48.3,35.0,30.03,ENE,78,0.0,0.0,60,0.00,,,0.05,Wunderground v.1.15,2013-11-24 00:05:00,
2013-11-23 16:10:00,48.3,35.5,30.03,ESE,119,0.0,0.0,61,0.00,,,0.05,Wunderground v.1.15,2013-11-24 00:10:00,
2013-11-23 16:15:00,48.3,35.9,30.03,East,87,0.0,0.0,62,0.00,,,0.05,Wunderground v.1.15,2013-11-24 00:15:00,
2013-11-23 16:20:00,48.3,35.9,30.03,East,85,0.0,0.0,62,0.00,,,0.05,Wunderground v.1.15,2013-11-24 00:20:00,
2013-11-23 16:25:00,48.3,35.9,30.03,East,97,0.0,0.0,62,0.00,,,0.05,Wunderground v.1.15,2013-11-24 00:25:00,
2013-11-23 16:30:00,48.3,35.5,30.03,East,93,0.0,0.0,61,0.00,,,0.05,Wunderground v.1.15,2013-11-24 00:30:00,
2013-11-23 16:35:00,48.3,35.9,30.03,East,93,0.0,0.0,62,0.00,,,0.05,Wunderground v.1.15,2013-11-24 00:35:00,
2013-11-23 16:40:00,48.3,36.3,30.03,East,88,0.0,0.0,63,0.00,,,0.05,Wunderground v.1.15,2013-11-24 00:40:00,
2013-11-23 16:45:00,48.3,37.1,30.03,East,98,0.0,0.0,65,0.00,,,0.05,Wunderground v.1.15,2013-11-24 00:45:00,
2013-11-23 16:50:00,48.2,37.4,30.04,East,98,0.0,0.0,66,0.00,,,0.05,Wunderground v.1.15,2013-11-24 00:50:00,
2013-11-23 16:55:00,48.0,37.6,30.04,East,99,0.0,0.0,67,0.00,,,0.05,Wunderground v.1.15,2013-11-24 00:55:00,
2013-11-23 17:00:00,47.9,37.8,30.04,East,99,0.0,0.0,68,0.00,,,0.05,Wunderground v.1.15,2013-11-24 01:00:00,
2013-11-23 17:05:00,47.9,37.8,30.05,East,99,0.0,0.0,68,0.00,,,0.05,Wunderground v.1.15,2013-11-24 01:05:00,
2013-11-23 17:10:00,47.7,38.0,30.05,East,99,0.0,0.0,69,0.00,,,0.05,Wunderground v.1.15,2013-11-24 01:10:00,
2013-11-23 17:15:00,47.7,38.4,30.05,East,99,0.0,0.0,70,0.00,,,0.05,Wunderground v.1.15,2013-11-24 01:15:00,
2013-11-23 17:20:00,47.6,38.3,30.04,East,99,0.0,0.0,70,0.00,,,0.05,Wunderground v.1.15,2013-11-24 01:20:00,
2013-11-23 17:25:00,47.4,38.1,30.04,ESE,111,0.0,0.0,70,0.00,,,0.05,Wunderground v.1.15,2013-11-24 01:25:00,
2013-11-23 17:30:00,47.4,38.1,30.04,ESE,111,0.0,0.0,70,0.00,,,0.05,Wunderground v.1.15,2013-11-24 01:30:00,
2013-11-23 17:35:00,47.3,38.4,30.05,ESE,111,0.0,0.0,71,0.00,,,0.05,Wunderground v.1.15,2013-11-24 01:35:00,
2013-11-23 17:40:00,47.3,38.0,30.05,ESE,110,0.0,0.0,70,0.00,,,0.05,Wunderground v.1.15,2013-11-24 01:40:00,
2013-11-23 17:45:00,47.3,38.4,30.05,ESE,110,0.0,0.0,71,0.00,,,0.05,Wunderground v.1.15,2013-11-24 01:45:00,
2013-11-23 17:50:00,47.1,38.2,30.05,ESE,110,0.0,0.0,71,0.00,,,0.05,Wunderground v.1.15,2013-11-24 01:50:00,
2013-11-23 17:55:00,47.1,38.2,30.05,ESE,110,0.0,0.0,71,0.00,,,0.05,Wunderground v.1.15,2013-11-24 01:55:00,
2013-11-23 18:00:00,47.1,38.2,30.05,ESE,110,0.0,0.0,71,0.00,,,0.05,Wunderground v.1.15,2013-11-24 02:00:00,
2013-11-23 18:05:00,47.1,37.8,30.05,East,88,0.0,0.0,70,0.00,,,0.05,Wunderground v.1.15,2013-11-24 02:05:00,
2013-11-23 18:15:00,47.1,37.4,30.05,East,93,1.0,1.0,69,0.00,,,0.05,Wunderground v.1.15,2013-11-24 02:15:00,
2013-11-23 18:20:00,47.1,37.4,30.05,East,79,2.0,2.0,69,0.00,,,0.05,Wunderground v.1.15,2013-11-24 02:20:00,
2013-11-23 18:25:00,47.0,37.4,30.05,East,86,2.0,2.0,69,0.00,,,0.05,Wunderground v.1.15,2013-11-24 02:25:00,
2013-11-23 18:30:00,46.8,37.5,30.05,East,91,1.0,1.0,70,0.00,,,0.05,Wunderground v.1.15,2013-11-24 02:30:00,
2013-11-23 18:35:00,46.7,37.8,30.05,East,92,0.0,1.0,71,0.00,,,0.05,Wunderground v.1.15,2013-11-24 02:35:00,
2013-11-23 18:40:00,46.7,38.1,30.05,East,90,0.0,0.0,72,0.00,,,0.05,Wunderground v.1.15,2013-11-24 02:40:00,
2013-11-23 18:45:00,46.5,38.0,30.05,ENE,77,0.0,0.0,72,0.00,,,0.05,Wunderground v.1.15,2013-11-24 02:45:00,
2013-11-23 18:50:00,46.5,38.0,30.06,East,92,0.0,0.0,72,0.00,,,0.05,Wunderground v.1.15,2013-11-24 02:50:00,
2013-11-23 18:55:00,46.4,37.9,30.06,ENE,71,0.0,0.0,72,0.00,,,0.05,Wunderground v.1.15,2013-11-24 02:55:00,
2013-11-23 19:00:00,46.2,37.7,30.06,ENE,73,0.0,0.0,72,0.00,,,0.05,Wunderground v.1.15,2013-11-24 03:00:00,
2013-11-23 19:05:00,46.2,37.7,30.07,East,90,0.0,0.0,72,0.00,,,0.05,Wunderground v.1.15,2013-11-24 03:05:00,
2013-11-23 19:10:00,46.2,37.7,30.07,East,86,0.0,0.0,72,0.00,,,0.05,Wunderground v.1.15,2013-11-24 03:10:00,
2013-11-23 19:15:00,46.1,37.6,30.07,East,86,0.0,0.0,72,0.00,,,0.05,Wunderground v.1.15,2013-11-24 03:15:00,
2013-11-23 19:20:00,46.1,37.9,30.07,East,96,0.0,0.0,73,0.00,,,0.05,Wunderground v.1.15,2013-11-24 03:20:00,
2013-11-23 19:30:00,46.0,37.8,30.07,East,101,0.0,0.0,73,0.00,,,0.05,Wunderground v.1.15,2013-11-24 03:30:00,
2013-11-23 19:35:00,45.8,38.0,30.08,East,82,0.0,0.0,74,0.00,,,0.05,Wunderground v.1.15,2013-11-24 03:35:00,
2013-11-23 19:40:00,45.8,37.6,30.08,East,99,0.0,0.0,73,0.00,,,0.05,Wunderground v.1.15,2013-11-24 03:40:00,
2013-11-23 19:45:00,45.8,37.6,30.08,East,98,0.0,0.0,73,0.00,,,0.05,Wunderground v.1.15,2013-11-24 03:45:00,
2013-11-23 19:50:00,45.8,37.6,30.08,SE,128,0.0,0.0,73,0.00,,,0.05,Wunderground v.1.15,2013-11-24 03:50:00,
2013-11-23 19:55:00,45.8,38.0,30.08,SE,128,0.0,0.0,74,0.00,,,0.05,Wunderground v.1.15,2013-11-24 03:55:00,
2013-11-23 20:05:00,45.8,38.0,30.08,ESE,106,0.0,0.0,74,0.00,,,0.05,Wunderground v.1.15,2013-11-24 04:05:00,
2013-11-23 20:10:00,45.8,38.0,30.08,East,96,0.0,0.0,74,0.00,,,0.05,Wunderground v.1.15,2013-11-24 04:10:00,
2013-11-23 20:15:00,45.8,38.0,30.08,ESE,113,1.0,1.0,74,0.00,,,0.05,Wunderground v.1.15,2013-11-24 04:15:00,
2013-11-23 20:20:00,45.8,38.0,30.08,ESE,114,1.0,1.0,74,0.00,,,0.05,Wunderground v.1.15,2013-11-24 04:20:00,
2013-11-23 20:30:00,45.8,38.0,30.08,ESE,115,0.0,0.0,74,0.00,,,0.05,Wunderground v.1.15,2013-11-24 04:30:00,
2013-11-23 20:35:00,46.0,38.5,30.08,ESE,113,0.0,0.0,75,0.00,,,0.05,Wunderground v.1.15,2013-11-24 04:35:00,
2013-11-23 20:40:00,45.8,38.3,30.08,ESE,109,0.0,0.0,75,0.00,,,0.05,Wunderground v.1.15,2013-11-24 04:40:00,
2013-11-23 20:45:00,45.8,38.3,30.08,ESE,111,0.0,0.0,75,0.00,,,0.05,Wunderground v.1.15,2013-11-24 04:45:00,
2013-11-23 20:50:00,45.8,38.3,30.08,East,101,0.0,0.0,75,0.00,,,0.05,Wunderground v.1.15,2013-11-24 04:50:00,
2013-11-23 20:55:00,45.7,38.2,30.08,East,101,0.0,0.0,75,0.00,,,0.05,Wunderground v.1.15,2013-11-24 04:55:00,
2013-11-23 21:00:00,45.7,37.9,30.08,ENE,78,0.0,0.0,74,0.00,,,0.05,Wunderground v.1.15,2013-11-24 05:00:00,
2013-11-23 21:05:00,45.8,38.0,30.08,East,90,0.0,0.0,74,0.00,,,0.05,Wunderground v.1.15,2013-11-24 05:05:00,
2013-11-23 21:10:00,45.8,38.0,30.08,SE,127,0.0,0.0,74,0.00,,,0.05,Wunderground v.1.15,2013-11-24 05:10:00,
2013-11-23 21:15:00,45.8,38.0,30.08,SE,126,0.0,0.0,74,0.00,,,0.05,Wunderground v.1.15,2013-11-24 05:15:00,
2013-11-23 21:20:00,45.8,38.0,30.08,SE,142,0.0,0.0,74,0.00,,,0.05,Wunderground v.1.15,2013-11-24 05:20:00,
2013-11-23 21:30:00,45.8,38.0,30.08,SE,144,0.0,0.0,74,0.00,,,0.05,Wunderground v.1.15,2013-11-24 05:30:00,
2013-11-23 21:35:00,45.8,38.3,30.09,SE,143,0.0,0.0,75,0.00,,,0.05,Wunderground v.1.15,2013-11-24 05:35:00,
2013-11-23 21:45:00,45.5,38.4,30.09,SE,143,0.0,0.0,76,0.00,,,0.05,Wunderground v.1.15,2013-11-24 05:45:00,
2013-11-23 21:50:00,45.4,38.3,30.10,SE,143,0.0,0.0,76,0.00,,,0.05,Wunderground v.1.15,2013-11-24 05:50:00,
2013-11-23 21:55:00,45.2,38.4,30.10,SE,144,0.0,0.0,77,0.00,,,0.05,Wunderground v.1.15,2013-11-24 05:55:00,
2013-11-23 22:00:00,44.9,38.1,30.10,SE,144,0.0,0.0,77,0.00,,,0.05,Wunderground v.1.15,2013-11-24 06:00:00,
2013-11-23 22:05:00,44.8,38.4,30.10,SE,144,0.0,0.0,78,0.00,,,0.05,Wunderground v.1.15,2013-11-24 06:05:00,
2013-11-23 22:15:00,44.5,38.1,30.10,SE,144,0.0,0.0,78,0.00,,,0.05,Wunderground v.1.15,2013-11-24 06:15:00,
2013-11-23 22:20:00,44.5,38.4,30.09,SE,144,0.0,0.0,79,0.00,,,0.05,Wunderground v.1.15,2013-11-24 06:20:00,
2013-11-23 22:25:00,44.5,38.4,30.09,SE,145,0.0,0.0,79,0.00,,,0.05,Wunderground v.1.15,2013-11-24 06:25:00,
2013-11-23 22:30:00,44.5,38.4,30.09,SSE,164,0.0,0.0,79,0.00,,,0.05,Wunderground v.1.15,2013-11-24 06:30:00,
2013-11-23 22:35:00,44.5,38.4,30.10,South,169,0.0,0.0,79,0.00,,,0.05,Wunderground v.1.15,2013-11-24 06:35:00,
2013-11-23 22:40:00,44.6,38.5,30.10,South,169,0.0,0.0,79,0.00,,,0.05,Wunderground v.1.15,2013-11-24 06:40:00,
2013-11-23 22:45:00,44.5,38.4,30.10,South,169,0.0,0.0,79,0.00,,,0.05,Wunderground v.1.15,2013-11-24 06:45:00,
2013-11-23 22:50:00,44.5,38.4,30.10,South,169,0.0,0.0,79,0.00,,,0.05,Wunderground v.1.15,2013-11-24 06:50:00,
2013-11-23 22:55:00,44.5,38.1,30.10,South,169,0.0,0.0,78,0.00,,,0.05,Wunderground v.1.15,2013-11-24 06:55:00,
2013-11-23 23:00:00,44.5,38.1,30.10,South,169,0.0,0.0,78,0.00,,,0.05,Wunderground v.1.15,2013-11-24 07:00:00,
2013-11-23 23:05:00,44.5,38.1,30.10,South,169,0.0,0.0,78,0.00,,,0.05,Wunderground v.1.15,2013-11-24 07:05:00,
2013-11-23 23:10:00,44.5,38.1,30.10,South,169,0.0,0.0,78,0.00,,,0.05,Wunderground v.1.15,2013-11-24 07:10:00,
2013-11-23 23:15:00,44.5,38.1,30.10,South,169,0.0,0.0,78,0.00,,,0.05,Wunderground v.1.15,2013-11-24 07:15:00,
2013-11-23 23:20:00,44.5,38.1,30.10,South,169,0.0,0.0,78,0.00,,,0.05,Wunderground v.1.15,2013-11-24 07:20:00,
2013-11-23 23:25:00,44.5,38.4,30.10,South,169,0.0,0.0,79,0.00,,,0.05,Wunderground v.1.15,2013-11-24 07:25:00,
2013-11-23 23:30:00,44.5,38.1,30.10,South,169,0.0,0.0,78,0.00,,,0.05,Wunderground v.1.15,2013-11-24 07:30:00,
2013-11-23 23:35:00,44.3,38.2,30.10,South,169,0.0,0.0,79,0.00,,,0.05,Wunderground v.1.15,2013-11-24 07:35:00,
2013-11-23 23:40:00,44.3,38.2,30.10,South,169,0.0,0.0,79,0.00,,,0.05,Wunderground v.1.15,2013-11-24 07:40:00,
2013-11-23 23:45:00,44.2,38.1,30.10,South,169,0.0,0.0,79,0.00,,,0.05,Wunderground v.1.15,2013-11-24 07:45:00,
2013-11-23 23:50:00,44.1,38.0,30.10,South,169,0.0,0.0,79,0.00,,,0.05,Wunderground v.1.15,2013-11-24 07:50:00,
2013-11-23 23:55:00,43.9,37.8,30.10,South,169,0.0,0.0,79,0.00,,,0.05,Wunderground v.1.15,2013-11-24 07:55:00,